Scampton, United Kingdom
Current Conditions -  °F | °C
As of 2:50 PM on Wednesday 22 Oct 2014 (Local Time) from EGXP Reporting Station
Overcast Overcast  
Wind Chill: 12°   Ceiling: 2400
Heat Index: 12°   Visibility: 6mi
Dew Point:   Wind: 16mph
Humidity: 77%   Direction: 260°W
Pressure: 30.15"   Gusts: NA
Location:  53.3°N, 0.58°W
Report Text: EGXP 221350Z 26014KT 9999 BKN024 OVC050 12/08 Q1021 WHT
Loading
Personal Weather Stations






























Interactive Weather Map
Tropical Storm Tracking
New forecast layout! Learn more

10-Day Weather Forecast

Advertisements
Track Severe Weather on mobile